sensor_id;sensor_type;location;lat;lon;timestamp;P1;durP1;ratioP1;P2;durP2;ratioP2
23474;SDS011;11910;52.086;21.066;2023-01-16T00:00:49;13.90;;;10.65;;
23474;SDS011;11910;52.086;21.066;2023-01-16T00:03:15;15.15;;;10.20;;
23474;SDS011;11910;52.086;21.066;2023-01-16T00:05:41;15.00;;;11.05;;
23474;SDS011;11910;52.086;21.066;2023-01-16T00:08:07;14.48;;;10.48;;
23474;SDS011;11910;52.086;21.066;2023-01-16T00:10:33;17.48;;;10.75;;
23474;SDS011;11910;52.086;21.066;2023-01-16T00:12:58;14.35;;;10.77;;
23474;SDS011;11910;52.086;21.066;2023-01-16T00:15:24;14.10;;;10.80;;
23474;SDS011;11910;52.086;21.066;2023-01-16T00:17:50;18.00;;;11.82;;
23474;SDS011;11910;52.086;21.066;2023-01-16T00:20:16;15.90;;;11.15;;
23474;SDS011;11910;52.086;21.066;2023-01-16T00:22:42;16.30;;;11.40;;
23474;SDS011;11910;52.086;21.066;2023-01-16T00:25:07;15.73;;;11.75;;
23474;SDS011;11910;52.086;21.066;2023-01-16T00:27:33;15.88;;;11.90;;
23474;SDS011;11910;52.086;21.066;2023-01-16T00:29:59;16.83;;;11.43;;
23474;SDS011;11910;52.086;21.066;2023-01-16T00:32:24;14.77;;;11.55;;
23474;SDS011;11910;52.086;21.066;2023-01-16T00:34:50;16.08;;;11.82;;
23474;SDS011;11910;52.086;21.066;2023-01-16T00:37:16;16.58;;;11.98;;
23474;SDS011;11910;52.086;21.066;2023-01-16T00:39:41;15.13;;;12.02;;
23474;SDS011;11910;52.086;21.066;2023-01-16T00:42:07;19.63;;;13.68;;
23474;SDS011;11910;52.086;21.066;2023-01-16T00:44:33;17.13;;;12.23;;
23474;SDS011;11910;52.086;21.066;2023-01-16T00:46:58;18.13;;;13.05;;
23474;SDS011;11910;52.086;21.066;2023-01-16T00:49:24;16.77;;;12.32;;
23474;SDS011;11910;52.086;21.066;2023-01-16T00:51:49;18.02;;;13.02;;
23474;SDS011;11910;52.086;21.066;2023-01-16T00:54:15;17.20;;;12.23;;
23474;SDS011;11910;52.086;21.066;2023-01-16T00:56:41;15.68;;;11.88;;
23474;SDS011;11910;52.086;21.066;2023-01-16T00:59:06;16.73;;;12.23;;
23474;SDS011;11910;52.086;21.066;2023-01-16T01:01:32;18.38;;;13.05;;
23474;SDS011;11910;52.086;21.066;2023-01-16T01:03:58;17.08;;;12.30;;
23474;SDS011;11910;52.086;21.066;2023-01-16T01:06:24;17.90;;;12.45;;
23474;SDS011;11910;52.086;21.066;2023-01-16T01:08:50;17.02;;;12.48;;
23474;SDS011;11910;52.086;21.066;2023-01-16T01:11:16;16.65;;;12.38;;
23474;SDS011;11910;52.086;21.066;2023-01-16T01:13:41;17.13;;;12.27;;
23474;SDS011;11910;52.086;21.066;2023-01-16T01:16:08;15.25;;;11.45;;
23474;SDS011;11910;52.086;21.066;2023-01-16T01:18:35;16.00;;;11.73;;
23474;SDS011;11910;52.086;21.066;2023-01-16T01:21:00;16.65;;;12.45;;
23474;SDS011;11910;52.086;21.066;2023-01-16T01:23:26;15.95;;;12.05;;
23474;SDS011;11910;52.086;21.066;2023-01-16T01:25:52;17.38;;;11.85;;
23474;SDS011;11910;52.086;21.066;2023-01-16T01:28:18;17.73;;;12.98;;
23474;SDS011;11910;52.086;21.066;2023-01-16T01:30:44;18.08;;;12.77;;
23474;SDS011;11910;52.086;21.066;2023-01-16T01:33:10;18.73;;;13.27;;
23474;SDS011;11910;52.086;21.066;2023-01-16T01:35:36;16.58;;;12.93;;
23474;SDS011;11910;52.086;21.066;2023-01-16T01:38:02;17.10;;;13.00;;
23474;SDS011;11910;52.086;21.066;2023-01-16T01:40:28;18.42;;;13.52;;
23474;SDS011;11910;52.086;21.066;2023-01-16T01:42:54;18.95;;;12.75;;
23474;SDS011;11910;52.086;21.066;2023-01-16T01:53:01;18.70;;;12.77;;
23474;SDS011;11910;52.086;21.066;2023-01-16T01:55:33;19.40;;;13.82;;
23474;SDS011;11910;52.086;21.066;2023-01-16T01:57:59;21.13;;;14.38;;
23474;SDS011;11910;52.086;21.066;2023-01-16T02:00:27;19.77;;;14.25;;
23474;SDS011;11910;52.086;21.066;2023-01-16T02:05:41;20.88;;;14.80;;
23474;SDS011;11910;52.086;21.066;2023-01-16T02:08:10;21.52;;;15.63;;
23474;SDS011;11910;52.086;21.066;2023-01-16T02:10:40;22.33;;;14.95;;
23474;SDS011;11910;52.086;21.066;2023-01-16T02:13:12;21.50;;;15.43;;
23474;SDS011;11910;52.086;21.066;2023-01-16T02:15:38;23.17;;;15.05;;
23474;SDS011;11910;52.086;21.066;2023-01-16T02:18:27;24.88;;;16.10;;
23474;SDS011;11910;52.086;21.066;2023-01-16T02:21:28;21.70;;;15.68;;
23474;SDS011;11910;52.086;21.066;2023-01-16T02:29:16;26.60;;;17.60;;
23474;SDS011;11910;52.086;21.066;2023-01-16T02:31:52;26.92;;;17.35;;
23474;SDS011;11910;52.086;21.066;2023-01-16T02:34:25;29.13;;;17.27;;
23474;SDS011;11910;52.086;21.066;2023-01-16T02:39:38;25.13;;;16.45;;
23474;SDS011;11910;52.086;21.066;2023-01-16T02:47:29;25.40;;;16.73;;
23474;SDS011;11910;52.086;21.066;2023-01-16T02:52:47;26.13;;;16.88;;
23474;SDS011;11910;52.086;21.066;2023-01-16T02:55:21;26.67;;;17.38;;
23474;SDS011;11910;52.086;21.066;2023-01-16T02:57:55;25.45;;;16.55;;
23474;SDS011;11910;52.086;21.066;2023-01-16T03:00:24;24.52;;;16.33;;
23474;SDS011;11910;52.086;21.066;2023-01-16T03:02:50;25.23;;;17.20;;
23474;SDS011;11910;52.086;21.066;2023-01-16T03:05:16;29.35;;;18.35;;
23474;SDS011;11910;52.086;21.066;2023-01-16T03:15:46;25.43;;;16.00;;
23474;SDS011;11910;52.086;21.066;2023-01-16T03:18:34;28.08;;;17.77;;
23474;SDS011;11910;52.086;21.066;2023-01-16T03:26:35;27.88;;;17.52;;
23474;SDS011;11910;52.086;21.066;2023-01-16T03:32:41;30.48;;;17.90;;
23474;SDS011;11910;52.086;21.066;2023-01-16T03:35:07;24.35;;;15.60;;
23474;SDS011;11910;52.086;21.066;2023-01-16T03:37:42;26.60;;;17.20;;
23474;SDS011;11910;52.086;21.066;2023-01-16T03:40:13;25.63;;;16.98;;
23474;SDS011;11910;52.086;21.066;2023-01-16T03:42:43;24.70;;;16.60;;
23474;SDS011;11910;52.086;21.066;2023-01-16T03:45:24;26.58;;;16.40;;
23474;SDS011;11910;52.086;21.066;2023-01-16T03:47:59;24.15;;;16.60;;
23474;SDS011;11910;52.086;21.066;2023-01-16T03:50:31;24.45;;;15.63;;
23474;SDS011;11910;52.086;21.066;2023-01-16T03:53:00;22.08;;;15.75;;
23474;SDS011;11910;52.086;21.066;2023-01-16T03:55:51;26.23;;;16.65;;
23474;SDS011;11910;52.086;21.066;2023-01-16T03:58:34;22.45;;;16.10;;
23474;SDS011;11910;52.086;21.066;2023-01-16T04:04:25;21.10;;;15.13;;
23474;SDS011;11910;52.086;21.066;2023-01-16T04:07:13;20.63;;;14.63;;
23474;SDS011;11910;52.086;21.066;2023-01-16T04:10:05;23.63;;;15.95;;
23474;SDS011;11910;52.086;21.066;2023-01-16T04:12:35;22.25;;;15.38;;
23474;SDS011;11910;52.086;21.066;2023-01-16T04:15:04;22.00;;;14.68;;
23474;SDS011;11910;52.086;21.066;2023-01-16T04:17:32;25.08;;;16.02;;
23474;SDS011;11910;52.086;21.066;2023-01-16T04:20:00;24.80;;;15.85;;
23474;SDS011;11910;52.086;21.066;2023-01-16T04:22:27;24.48;;;15.48;;
23474;SDS011;11910;52.086;21.066;2023-01-16T04:24:55;25.42;;;16.50;;
23474;SDS011;11910;52.086;21.066;2023-01-16T04:27:22;23.27;;;15.18;;
23474;SDS011;11910;52.086;21.066;2023-01-16T04:29:48;26.92;;;17.05;;
23474;SDS011;11910;52.086;21.066;2023-01-16T04:32:14;23.45;;;15.60;;
23474;SDS011;11910;52.086;21.066;2023-01-16T04:34:39;24.77;;;15.90;;
23474;SDS011;11910;52.086;21.066;2023-01-16T04:37:05;24.65;;;15.60;;
23474;SDS011;11910;52.086;21.066;2023-01-16T04:39:31;25.73;;;16.55;;
23474;SDS011;11910;52.086;21.066;2023-01-16T04:41:56;22.15;;;16.20;;
23474;SDS011;11910;52.086;21.066;2023-01-16T04:44:23;25.38;;;16.77;;
23474;SDS011;11910;52.086;21.066;2023-01-16T04:46:49;27.00;;;16.27;;
23474;SDS011;11910;52.086;21.066;2023-01-16T04:49:15;27.33;;;17.48;;
23474;SDS011;11910;52.086;21.066;2023-01-16T04:51:41;26.50;;;17.95;;
23474;SDS011;11910;52.086;21.066;2023-01-16T04:54:08;30.92;;;20.17;;
23474;SDS011;11910;52.086;21.066;2023-01-16T04:56:38;26.88;;;17.85;;
23474;SDS011;11910;52.086;21.066;2023-01-16T04:59:03;27.05;;;17.90;;
23474;SDS011;11910;52.086;21.066;2023-01-16T05:01:29;29.33;;;18.38;;
23474;SDS011;11910;52.086;21.066;2023-01-16T05:03:59;31.85;;;19.05;;
23474;SDS011;11910;52.086;21.066;2023-01-16T05:06:34;28.77;;;18.42;;
23474;SDS011;11910;52.086;21.066;2023-01-16T05:09:01;28.98;;;17.83;;
23474;SDS011;11910;52.086;21.066;2023-01-16T05:11:28;27.95;;;17.88;;
23474;SDS011;11910;52.086;21.066;2023-01-16T05:13:53;29.67;;;19.02;;
23474;SDS011;11910;52.086;21.066;2023-01-16T05:16:19;29.13;;;18.70;;
23474;SDS011;11910;52.086;21.066;2023-01-16T05:18:45;32.20;;;19.63;;
23474;SDS011;11910;52.086;21.066;2023-01-16T05:21:10;26.33;;;17.50;;
23474;SDS011;11910;52.086;21.066;2023-01-16T05:23:36;25.38;;;16.77;;
23474;SDS011;11910;52.086;21.066;2023-01-16T05:26:05;27.80;;;18.90;;
23474;SDS011;11910;52.086;21.066;2023-01-16T05:28:40;29.79;;;19.00;;
23474;SDS011;11910;52.086;21.066;2023-01-16T05:31:06;30.48;;;19.55;;
23474;SDS011;11910;52.086;21.066;2023-01-16T05:33:31;32.13;;;20.27;;
23474;SDS011;11910;52.086;21.066;2023-01-16T05:35:57;30.50;;;20.02;;
23474;SDS011;11910;52.086;21.066;2023-01-16T05:38:23;29.33;;;19.85;;
23474;SDS011;11910;52.086;21.066;2023-01-16T05:40:48;30.10;;;19.05;;
23474;SDS011;11910;52.086;21.066;2023-01-16T05:43:14;31.85;;;20.20;;
23474;SDS011;11910;52.086;21.066;2023-01-16T05:45:40;27.70;;;18.35;;
23474;SDS011;11910;52.086;21.066;2023-01-16T05:48:06;28.25;;;19.15;;
23474;SDS011;11910;52.086;21.066;2023-01-16T05:50:31;36.75;;;20.58;;
23474;SDS011;11910;52.086;21.066;2023-01-16T05:52:57;31.95;;;20.08;;
23474;SDS011;11910;52.086;21.066;2023-01-16T05:55:23;33.85;;;20.55;;
23474;SDS011;11910;52.086;21.066;2023-01-16T05:57:49;28.95;;;19.10;;
23474;SDS011;11910;52.086;21.066;2023-01-16T06:00:15;26.25;;;17.10;;
23474;SDS011;11910;52.086;21.066;2023-01-16T06:02:42;26.10;;;17.52;;
23474;SDS011;11910;52.086;21.066;2023-01-16T06:05:07;28.85;;;18.40;;
23474;SDS011;11910;52.086;21.066;2023-01-16T06:07:34;27.60;;;17.55;;
23474;SDS011;11910;52.086;21.066;2023-01-16T06:09:59;25.40;;;16.98;;
23474;SDS011;11910;52.086;21.066;2023-01-16T06:12:25;26.48;;;17.15;;
23474;SDS011;11910;52.086;21.066;2023-01-16T06:14:51;28.33;;;17.13;;
23474;SDS011;11910;52.086;21.066;2023-01-16T06:17:17;27.08;;;16.98;;
23474;SDS011;11910;52.086;21.066;2023-01-16T06:19:44;25.95;;;15.95;;
23474;SDS011;11910;52.086;21.066;2023-01-16T06:22:10;26.35;;;16.83;;
23474;SDS011;11910;52.086;21.066;2023-01-16T06:24:38;30.95;;;18.80;;
23474;SDS011;11910;52.086;21.066;2023-01-16T06:27:04;28.67;;;17.88;;
23474;SDS011;11910;52.086;21.066;2023-01-16T06:29:30;29.20;;;18.52;;
23474;SDS011;11910;52.086;21.066;2023-01-16T06:31:55;26.52;;;17.27;;
23474;SDS011;11910;52.086;21.066;2023-01-16T06:34:21;29.05;;;18.33;;
23474;SDS011;11910;52.086;21.066;2023-01-16T06:36:46;27.20;;;17.27;;
23474;SDS011;11910;52.086;21.066;2023-01-16T06:39:13;25.80;;;16.48;;
23474;SDS011;11910;52.086;21.066;2023-01-16T06:41:39;25.95;;;16.20;;
23474;SDS011;11910;52.086;21.066;2023-01-16T06:44:06;25.08;;;15.70;;
23474;SDS011;11910;52.086;21.066;2023-01-16T06:46:32;22.17;;;14.68;;
23474;SDS011;11910;52.086;21.066;2023-01-16T06:48:57;20.70;;;14.60;;
23474;SDS011;11910;52.086;21.066;2023-01-16T06:51:23;20.95;;;14.45;;
23474;SDS011;11910;52.086;21.066;2023-01-16T06:53:48;22.92;;;14.98;;
23474;SDS011;11910;52.086;21.066;2023-01-16T06:56:14;22.33;;;15.63;;
23474;SDS011;11910;52.086;21.066;2023-01-16T06:58:40;23.83;;;17.10;;
23474;SDS011;11910;52.086;21.066;2023-01-16T07:01:05;25.75;;;17.65;;
23474;SDS011;11910;52.086;21.066;2023-01-16T07:03:31;22.73;;;14.55;;
23474;SDS011;11910;52.086;21.066;2023-01-16T07:05:57;31.05;;;16.52;;
23474;SDS011;11910;52.086;21.066;2023-01-16T07:08:23;22.67;;;14.73;;
23474;SDS011;11910;52.086;21.066;2023-01-16T07:10:48;21.55;;;13.88;;
23474;SDS011;11910;52.086;21.066;2023-01-16T07:13:14;21.42;;;14.52;;
23474;SDS011;11910;52.086;21.066;2023-01-16T07:15:41;19.33;;;13.82;;
23474;SDS011;11910;52.086;21.066;2023-01-16T07:18:30;23.30;;;15.65;;
23474;SDS011;11910;52.086;21.066;2023-01-16T07:21:14;23.38;;;15.50;;
23474;SDS011;11910;52.086;21.066;2023-01-16T07:24:03;22.42;;;14.98;;
23474;SDS011;11910;52.086;21.066;2023-01-16T07:26:31;23.33;;;15.70;;
23474;SDS011;11910;52.086;21.066;2023-01-16T07:28:59;22.00;;;15.13;;
23474;SDS011;11910;52.086;21.066;2023-01-16T07:31:27;22.88;;;15.02;;
23474;SDS011;11910;52.086;21.066;2023-01-16T07:33:53;23.17;;;15.20;;
23474;SDS011;11910;52.086;21.066;2023-01-16T07:36:19;23.73;;;16.63;;
23474;SDS011;11910;52.086;21.066;2023-01-16T07:38:44;22.70;;;15.63;;
23474;SDS011;11910;52.086;21.066;2023-01-16T07:41:10;23.25;;;15.30;;
23474;SDS011;11910;52.086;21.066;2023-01-16T07:43:35;22.17;;;15.43;;
23474;SDS011;11910;52.086;21.066;2023-01-16T07:46:01;21.92;;;14.50;;
23474;SDS011;11910;52.086;21.066;2023-01-16T07:48:27;21.40;;;14.52;;
23474;SDS011;11910;52.086;21.066;2023-01-16T07:50:53;22.52;;;15.50;;
23474;SDS011;11910;52.086;21.066;2023-01-16T07:53:20;24.30;;;16.65;;
23474;SDS011;11910;52.086;21.066;2023-01-16T07:55:48;16.85;;;11.45;;
23474;SDS011;11910;52.086;21.066;2023-01-16T07:58:15;15.80;;;11.07;;
23474;SDS011;11910;52.086;21.066;2023-01-16T08:00:41;17.92;;;13.82;;
23474;SDS011;11910;52.086;21.066;2023-01-16T08:03:07;19.15;;;10.73;;
23474;SDS011;11910;52.086;21.066;2023-01-16T08:05:33;17.73;;;10.63;;
23474;SDS011;11910;52.086;21.066;2023-01-16T08:07:58;17.10;;;10.93;;
23474;SDS011;11910;52.086;21.066;2023-01-16T08:10:24;16.05;;;11.45;;
23474;SDS011;11910;52.086;21.066;2023-01-16T08:12:50;16.77;;;11.00;;
23474;SDS011;11910;52.086;21.066;2023-01-16T08:15:16;16.35;;;11.85;;
23474;SDS011;11910;52.086;21.066;2023-01-16T08:17:41;13.75;;;10.43;;
23474;SDS011;11910;52.086;21.066;2023-01-16T08:20:07;14.57;;;10.20;;
23474;SDS011;11910;52.086;21.066;2023-01-16T08:22:34;14.68;;;10.68;;
23474;SDS011;11910;52.086;21.066;2023-01-16T08:24:59;15.73;;;10.40;;
23474;SDS011;11910;52.086;21.066;2023-01-16T08:27:25;16.83;;;11.68;;
23474;SDS011;11910;52.086;21.066;2023-01-16T08:29:50;24.50;;;15.55;;
23474;SDS011;11910;52.086;21.066;2023-01-16T08:32:16;16.70;;;10.05;;
23474;SDS011;11910;52.086;21.066;2023-01-16T08:34:42;14.52;;;9.32;;
23474;SDS011;11910;52.086;21.066;2023-01-16T08:37:08;13.43;;;9.30;;
23474;SDS011;11910;52.086;21.066;2023-01-16T08:39:35;13.13;;;9.27;;
23474;SDS011;11910;52.086;21.066;2023-01-16T08:42:02;18.23;;;11.60;;
23474;SDS011;11910;52.086;21.066;2023-01-16T08:44:46;23.55;;;15.23;;
23474;SDS011;11910;52.086;21.066;2023-01-16T08:47:30;16.35;;;11.52;;
23474;SDS011;11910;52.086;21.066;2023-01-16T08:50:18;13.40;;;8.88;;
23474;SDS011;11910;52.086;21.066;2023-01-16T08:53:03;11.43;;;8.35;;
23474;SDS011;11910;52.086;21.066;2023-01-16T08:55:29;18.13;;;11.85;;
23474;SDS011;11910;52.086;21.066;2023-01-16T08:57:55;14.45;;;10.10;;
23474;SDS011;11910;52.086;21.066;2023-01-16T09:00:23;17.20;;;10.25;;
23474;SDS011;11910;52.086;21.066;2023-01-16T09:02:50;12.77;;;9.27;;
23474;SDS011;11910;52.086;21.066;2023-01-16T09:05:15;11.90;;;8.98;;
23474;SDS011;11910;52.086;21.066;2023-01-16T09:07:41;14.98;;;9.45;;
23474;SDS011;11910;52.086;21.066;2023-01-16T09:10:07;15.38;;;9.20;;
23474;SDS011;11910;52.086;21.066;2023-01-16T09:12:33;12.73;;;8.10;;
23474;SDS011;11910;52.086;21.066;2023-01-16T09:15:17;13.25;;;8.65;;
23474;SDS011;11910;52.086;21.066;2023-01-16T09:17:43;15.90;;;9.55;;
23474;SDS011;11910;52.086;21.066;2023-01-16T09:20:09;13.55;;;9.43;;
23474;SDS011;11910;52.086;21.066;2023-01-16T09:22:35;13.38;;;8.30;;
23474;SDS011;11910;52.086;21.066;2023-01-16T09:25:00;13.57;;;8.50;;
23474;SDS011;11910;52.086;21.066;2023-01-16T09:27:26;11.65;;;8.23;;
23474;SDS011;11910;52.086;21.066;2023-01-16T09:29:52;13.30;;;9.00;;
23474;SDS011;11910;52.086;21.066;2023-01-16T09:32:18;13.20;;;9.00;;
23474;SDS011;11910;52.086;21.066;2023-01-16T09:34:44;20.92;;;13.35;;
23474;SDS011;11910;52.086;21.066;2023-01-16T09:37:10;14.13;;;9.65;;
23474;SDS011;11910;52.086;21.066;2023-01-16T09:39:36;14.93;;;9.73;;
23474;SDS011;11910;52.086;21.066;2023-01-16T09:42:06;13.80;;;9.27;;
23474;SDS011;11910;52.086;21.066;2023-01-16T09:45:15;17.23;;;10.38;;
23474;SDS011;11910;52.086;21.066;2023-01-16T09:47:47;13.60;;;9.82;;
23474;SDS011;11910;52.086;21.066;2023-01-16T09:50:22;14.93;;;9.60;;
23474;SDS011;11910;52.086;21.066;2023-01-16T09:52:54;17.45;;;9.90;;
23474;SDS011;11910;52.086;21.066;2023-01-16T09:55:41;14.27;;;10.27;;
23474;SDS011;11910;52.086;21.066;2023-01-16T09:58:29;15.35;;;10.10;;
23474;SDS011;11910;52.086;21.066;2023-01-16T10:01:02;16.33;;;9.68;;
23474;SDS011;11910;52.086;21.066;2023-01-16T10:03:29;16.02;;;10.65;;
23474;SDS011;11910;52.086;21.066;2023-01-16T10:06:13;18.20;;;11.57;;
23474;SDS011;11910;52.086;21.066;2023-01-16T10:09:17;14.82;;;9.80;;
23474;SDS011;11910;52.086;21.066;2023-01-16T10:11:50;13.38;;;8.45;;
23474;SDS011;11910;52.086;21.066;2023-01-16T10:17:36;13.43;;;8.55;;
23474;SDS011;11910;52.086;21.066;2023-01-16T10:26:11;11.85;;;7.90;;
23474;SDS011;11910;52.086;21.066;2023-01-16T10:31:25;11.32;;;7.05;;
23474;SDS011;11910;52.086;21.066;2023-01-16T10:34:00;13.98;;;8.00;;
23474;SDS011;11910;52.086;21.066;2023-01-16T10:36:38;12.48;;;8.02;;
23474;SDS011;11910;52.086;21.066;2023-01-16T10:39:07;15.05;;;9.93;;
23474;SDS011;11910;52.086;21.066;2023-01-16T10:41:38;15.30;;;10.50;;
23474;SDS011;11910;52.086;21.066;2023-01-16T10:47:19;13.77;;;9.60;;
23474;SDS011;11910;52.086;21.066;2023-01-16T10:50:22;15.93;;;9.57;;
23474;SDS011;11910;52.086;21.066;2023-01-16T10:52:49;15.80;;;9.52;;
23474;SDS011;11910;52.086;21.066;2023-01-16T10:55:16;15.07;;;9.57;;
23474;SDS011;11910;52.086;21.066;2023-01-16T10:57:46;16.15;;;9.93;;
23474;SDS011;11910;52.086;21.066;2023-01-16T11:00:22;13.85;;;9.52;;
23474;SDS011;11910;52.086;21.066;2023-01-16T11:02:57;16.08;;;10.10;;
23474;SDS011;11910;52.086;21.066;2023-01-16T11:05:33;17.35;;;10.85;;
23474;SDS011;11910;52.086;21.066;2023-01-16T11:10:32;19.00;;;11.05;;
23474;SDS011;11910;52.086;21.066;2023-01-16T11:12:59;17.38;;;12.18;;
23474;SDS011;11910;52.086;21.066;2023-01-16T11:15:59;19.15;;;12.32;;
23474;SDS011;11910;52.086;21.066;2023-01-16T11:18:56;19.88;;;12.90;;
23474;SDS011;11910;52.086;21.066;2023-01-16T11:23:56;19.08;;;12.88;;
23474;SDS011;11910;52.086;21.066;2023-01-16T11:26:24;20.13;;;14.00;;
23474;SDS011;11910;52.086;21.066;2023-01-16T11:28:51;23.73;;;14.85;;
23474;SDS011;11910;52.086;21.066;2023-01-16T11:33:47;20.52;;;14.48;;
23474;SDS011;11910;52.086;21.066;2023-01-16T11:36:24;21.05;;;15.15;;
23474;SDS011;11910;52.086;21.066;2023-01-16T11:38:52;22.60;;;14.95;;
23474;SDS011;11910;52.086;21.066;2023-01-16T11:41:20;25.17;;;16.52;;
23474;SDS011;11910;52.086;21.066;2023-01-16T11:44:03;23.67;;;16.75;;
23474;SDS011;11910;52.086;21.066;2023-01-16T11:46:57;26.25;;;17.40;;
23474;SDS011;11910;52.086;21.066;2023-01-16T11:49:24;24.52;;;17.30;;
23474;SDS011;11910;52.086;21.066;2023-01-16T11:51:59;24.88;;;17.13;;
23474;SDS011;11910;52.086;21.066;2023-01-16T11:54:29;26.95;;;18.02;;
23474;SDS011;11910;52.086;21.066;2023-01-16T12:13:30;28.15;;;20.48;;
23474;SDS011;11910;52.086;21.066;2023-01-16T12:24:53;27.42;;;19.35;;
23474;SDS011;11910;52.086;21.066;2023-01-16T12:27:33;25.80;;;19.80;;
23474;SDS011;11910;52.086;21.066;2023-01-16T12:38:47;28.60;;;20.05;;
23474;SDS011;11910;52.086;21.066;2023-01-16T12:44:08;40.25;;;24.90;;
23474;SDS011;11910;52.086;21.066;2023-01-16T12:46:43;30.73;;;22.42;;
23474;SDS011;11910;52.086;21.066;2023-01-16T12:52:17;33.92;;;24.63;;
23474;SDS011;11910;52.086;21.066;2023-01-16T13:02:41;30.13;;;21.77;;
23474;SDS011;11910;52.086;21.066;2023-01-16T13:05:13;32.10;;;23.38;;
23474;SDS011;11910;52.086;21.066;2023-01-16T13:08:44;32.20;;;22.80;;
23474;SDS011;11910;52.086;21.066;2023-01-16T13:10:48;33.17;;;22.05;;
23474;SDS011;11910;52.086;21.066;2023-01-16T13:13:37;29.55;;;21.90;;
23474;SDS011;11910;52.086;21.066;2023-01-16T13:16:12;31.13;;;23.13;;
23474;SDS011;11910;52.086;21.066;2023-01-16T13:18:50;31.42;;;22.20;;
23474;SDS011;11910;52.086;21.066;2023-01-16T13:21:27;34.38;;;23.45;;
23474;SDS011;11910;52.086;21.066;2023-01-16T13:23:56;33.28;;;23.13;;
23474;SDS011;11910;52.086;21.066;2023-01-16T13:26:24;31.73;;;22.98;;
23474;SDS011;11910;52.086;21.066;2023-01-16T13:31:54;34.97;;;23.77;;
23474;SDS011;11910;52.086;21.066;2023-01-16T13:34:29;35.80;;;24.25;;
23474;SDS011;11910;52.086;21.066;2023-01-16T13:37:06;33.85;;;23.20;;
23474;SDS011;11910;52.086;21.066;2023-01-16T13:42:31;33.45;;;23.67;;
23474;SDS011;11910;52.086;21.066;2023-01-16T13:45:03;36.92;;;24.27;;
23474;SDS011;11910;52.086;21.066;2023-01-16T13:47:51;35.47;;;24.70;;
23474;SDS011;11910;52.086;21.066;2023-01-16T13:50:30;44.97;;;28.10;;
23474;SDS011;11910;52.086;21.066;2023-01-16T13:52:59;38.13;;;26.25;;
23474;SDS011;11910;52.086;21.066;2023-01-16T13:55:27;36.30;;;25.52;;
23474;SDS011;11910;52.086;21.066;2023-01-16T13:57:55;36.65;;;25.73;;
23474;SDS011;11910;52.086;21.066;2023-01-16T14:00:31;34.80;;;24.52;;
23474;SDS011;11910;52.086;21.066;2023-01-16T14:05:42;32.67;;;23.00;;
23474;SDS011;11910;52.086;21.066;2023-01-16T14:17:26;30.75;;;21.90;;
23474;SDS011;11910;52.086;21.066;2023-01-16T14:23:01;30.70;;;21.55;;
23474;SDS011;11910;52.086;21.066;2023-01-16T14:25:50;30.02;;;20.25;;
23474;SDS011;11910;52.086;21.066;2023-01-16T14:28:19;27.92;;;19.27;;
23474;SDS011;11910;52.086;21.066;2023-01-16T14:30:46;26.40;;;18.45;;
23474;SDS011;11910;52.086;21.066;2023-01-16T14:33:15;25.67;;;18.20;;
23474;SDS011;11910;52.086;21.066;2023-01-16T14:35:50;25.52;;;18.80;;
23474;SDS011;11910;52.086;21.066;2023-01-16T14:38:19;25.55;;;17.08;;
23474;SDS011;11910;52.086;21.066;2023-01-16T14:40:54;23.35;;;17.27;;
23474;SDS011;11910;52.086;21.066;2023-01-16T14:43:43;25.00;;;17.90;;
23474;SDS011;11910;52.086;21.066;2023-01-16T14:46:52;23.77;;;18.30;;
23474;SDS011;11910;52.086;21.066;2023-01-16T14:49:57;30.75;;;19.95;;
23474;SDS011;11910;52.086;21.066;2023-01-16T14:55:43;31.25;;;23.05;;
23474;SDS011;11910;52.086;21.066;2023-01-16T15:01:33;36.58;;;25.75;;
23474;SDS011;11910;52.086;21.066;2023-01-16T15:04:23;42.47;;;28.53;;
23474;SDS011;11910;52.086;21.066;2023-01-16T15:06:55;43.35;;;30.33;;
23474;SDS011;11910;52.086;21.066;2023-01-16T15:09:26;43.95;;;31.42;;
23474;SDS011;11910;52.086;21.066;2023-01-16T15:11:58;49.45;;;34.58;;
23474;SDS011;11910;52.086;21.066;2023-01-16T15:14:32;49.03;;;34.28;;
23474;SDS011;11910;52.086;21.066;2023-01-16T15:22:58;48.90;;;34.05;;
23474;SDS011;11910;52.086;21.066;2023-01-16T15:30:44;50.75;;;34.65;;
23474;SDS011;11910;52.086;21.066;2023-01-16T15:33:25;45.00;;;32.45;;
23474;SDS011;11910;52.086;21.066;2023-01-16T15:36:23;49.17;;;33.80;;
23474;SDS011;11910;52.086;21.066;2023-01-16T15:38:54;46.80;;;34.65;;
23474;SDS011;11910;52.086;21.066;2023-01-16T15:41:25;47.95;;;32.90;;
23474;SDS011;11910;52.086;21.066;2023-01-16T15:44:12;45.85;;;32.55;;
23474;SDS011;11910;52.086;21.066;2023-01-16T15:47:24;46.55;;;32.88;;
23474;SDS011;11910;52.086;21.066;2023-01-16T15:52:42;46.45;;;32.60;;
23474;SDS011;11910;52.086;21.066;2023-01-16T15:55:27;46.10;;;31.75;;
23474;SDS011;11910;52.086;21.066;2023-01-16T15:57:56;46.10;;;33.05;;
23474;SDS011;11910;52.086;21.066;2023-01-16T16:00:25;42.38;;;30.52;;
23474;SDS011;11910;52.086;21.066;2023-01-16T16:02:57;44.70;;;32.10;;
23474;SDS011;11910;52.086;21.066;2023-01-16T16:05:35;41.47;;;29.48;;
23474;SDS011;11910;52.086;21.066;2023-01-16T16:08:02;43.28;;;30.40;;
23474;SDS011;11910;52.086;21.066;2023-01-16T16:10:29;40.13;;;29.13;;
23474;SDS011;11910;52.086;21.066;2023-01-16T16:13:17;41.60;;;29.92;;
23474;SDS011;11910;52.086;21.066;2023-01-16T16:15:57;41.03;;;30.40;;
23474;SDS011;11910;52.086;21.066;2023-01-16T16:18:53;43.55;;;30.88;;
23474;SDS011;11910;52.086;21.066;2023-01-16T16:21:20;41.10;;;29.95;;
23474;SDS011;11910;52.086;21.066;2023-01-16T16:23:56;41.15;;;30.38;;
23474;SDS011;11910;52.086;21.066;2023-01-16T16:26:25;44.85;;;31.90;;
23474;SDS011;11910;52.086;21.066;2023-01-16T16:28:51;45.72;;;31.50;;
23474;SDS011;11910;52.086;21.066;2023-01-16T16:36:25;48.55;;;33.15;;
23474;SDS011;11910;52.086;21.066;2023-01-16T16:38:52;59.45;;;39.60;;
23474;SDS011;11910;52.086;21.066;2023-01-16T16:43:55;47.80;;;34.28;;
23474;SDS011;11910;52.086;21.066;2023-01-16T16:48:47;45.72;;;31.80;;
23474;SDS011;11910;52.086;21.066;2023-01-16T16:51:29;45.13;;;32.53;;
23474;SDS011;11910;52.086;21.066;2023-01-16T16:53:57;44.00;;;31.58;;
23474;SDS011;11910;52.086;21.066;2023-01-16T16:56:27;41.53;;;29.77;;
23474;SDS011;11910;52.086;21.066;2023-01-16T16:58:54;43.33;;;30.37;;
23474;SDS011;11910;52.086;21.066;2023-01-16T17:01:21;43.25;;;30.83;;
23474;SDS011;11910;52.086;21.066;2023-01-16T17:03:50;47.42;;;31.15;;
23474;SDS011;11910;52.086;21.066;2023-01-16T17:06:19;43.35;;;30.80;;
23474;SDS011;11910;52.086;21.066;2023-01-16T17:08:50;42.05;;;29.73;;
23474;SDS011;11910;52.086;21.066;2023-01-16T17:11:16;41.58;;;28.73;;
23474;SDS011;11910;52.086;21.066;2023-01-16T17:13:41;41.38;;;26.92;;
23474;SDS011;11910;52.086;21.066;2023-01-16T17:16:26;36.97;;;26.35;;
23474;SDS011;11910;52.086;21.066;2023-01-16T17:19:38;35.65;;;27.02;;
23474;SDS011;11910;52.086;21.066;2023-01-16T17:21:38;38.28;;;27.85;;